ETIK

Illesheim Air Base Heliport

Storck Barracks, Germany
TAF ETIK 182201Z 1822/2004 12009KT 9999 BKN010 QNH3010INS BECMG 1901/1902 16009KT 9999 SCT020 QNH3000INS BECMG 1911/1912 16009KT 9999 BKN020 QNH2999INS TEMPO 1913/1915 BKN010 BECMG 1917/1918 16009KT 8000 -SHRA BKN010 620409 QNH2995INS BECMG 2000/2001 18012KT 6000 -SHRA BKN008 620409 QNH2994INS TX04/1914Z TNM01/1903Z
Issued Valid From Valid To
Dec-18 @ 22:01 UTC
(an hour ago)
Dec-18 @ 22:00 UTC
(an hour ago)
Dec-20 @ 04:00 UTC
(-1 days ago)
Dec-18 @ 22:00 to Dec-19 @ 01:00
TAF ETIK 182201Z 1822/2004 12009KT 9999 BKN010 QNH3010INS
Wind Visibility Clouds Readings
120° at 9 knots 10,000+ meters
  • Broken at 1,000' AGL
Altimeter 30.09" Hg
Pressure 1019 hPa
Becoming Dec-19 @ 01:00 to Dec-19 @ 11:00
BECMG 1901/1902 16009KT 9999 SCT020 QNH3000INS
Wind Visibility Clouds Readings
160° at 9 knots 10,000+ meters
  • Scattered at 2,000' AGL
Altimeter 30" Hg
Pressure 1016 hPa
Becoming Dec-19 @ 11:00 to Dec-19 @ 17:00
BECMG 1911/1912 16009KT 9999 BKN020 QNH2999INS
Wind Visibility Clouds Readings
160° at 9 knots 10,000+ meters
  • Broken at 2,000' AGL
Altimeter 30" Hg
Pressure 1016 hPa
Temporary Dec-19 @ 13:00 to Dec-19 @ 15:00
TEMPO 1913/1915 BKN010
Clouds
  • Broken at 1,000' AGL
Becoming Dec-19 @ 17:00 to Dec-20 @ 00:00
BECMG 1917/1918 16009KT 8000 -SHRA BKN010 620409 QNH2995INS
Wind Visibility Clouds Conditions Readings Icing
160° at 9 knots 7,998 meters
  • Broken at 1,000' AGL
  • Light Rain
Altimeter 29.94" Hg
Pressure 1014 hPa
Light icing in cloud expected at 4,000' AGL extending to 13,000' AGL
Becoming Dec-20 @ 00:00 to Dec-20 @ 04:00
BECMG 2000/2001 18012KT 6000 -SHRA BKN008 620409 QNH2994INS TX04/1914Z TNM01/1903Z
Wind Visibility Clouds Conditions Readings Icing
180° at 12 knots 6,003 meters
  • Broken at 800' AGL
  • Light Rain
Altimeter 29.94" Hg
Pressure 1014 hPa
Light icing in cloud expected at 4,000' AGL extending to 13,000' AGL
TAF ETIK 182201Z 1822/2004 12009KT 9999 BKN010 QNH3010INS BECMG 1901/1902 16009KT 9999 SCT020 QNH3000INS BECMG 1911/1912 16009KT 9999 BKN020 QNH2999INS TEMPO 1913/1915 BKN010 BECMG 1917/1918 16009KT 8000 -SHRA BKN010 620409 QNH2995INS BECMG 2000/2001 18012KT 6000 -SHRA BKN008 620409 QNH2994INS TX04/1914Z TNM01/1903Z
Issued Dec-18 @ 22:01 UTC
(an hour ago)
Valid From Dec-18 @ 22:00 UTC
(an hour ago)
Valid To Dec-20 @ 04:00 UTC
(-1 days ago)
Dec-18 @ 22:00 - Dec-19 @ 01:00
Wind Visibility
120° at 9 knots 10,000+ meters
Clouds
  • Broken at 1,000' AGL
Becoming Dec-19 @ 01:00 - Dec-19 @ 11:00
Wind Visibility
160° at 9 knots 10,000+ meters
Clouds
  • Scattered at 2,000' AGL
Becoming Dec-19 @ 11:00 - Dec-19 @ 17:00
Wind Visibility
160° at 9 knots 10,000+ meters
Clouds
  • Broken at 2,000' AGL
Temporary Dec-19 @ 13:00 - Dec-19 @ 15:00
Clouds
  • Broken at 1,000' AGL
Becoming Dec-19 @ 17:00 - Dec-20 @ 00:00
Wind Visibility
160° at 9 knots 7,998 meters
Clouds
  • Broken at 1,000' AGL
Conditions
  • Light Rain
Becoming Dec-20 @ 00:00 - Dec-20 @ 04:00
Wind Visibility
180° at 12 knots 6,003 meters
Clouds
  • Broken at 800' AGL
Conditions
  • Light Rain